Time;durP1;ratioP1;P1;durP2;ratioP2;P2;SDS_P1;SDS_P2;PMS_P1;PMS_P2;Temp;Humidity;BMP_temperature;BMP_pressure;BME280_temperature;BME280_humidity;BME280_pressure;Samples;Min_cycle;Max_cycle;Signal;HPM_P1;HPM_P2
2022/07/20 00:00:40;;;;;;;7.03;1.38;;;25.30;34.70;;;;;;5115527;28;20016;-77
2022/07/20 00:03:11;;;;;;;2.60;1.40;;;25.30;34.60;;;;;;5115109;28;20020;-76
2022/07/20 00:05:42;;;;;;;2.35;1.40;;;25.30;34.60;;;;;;5114231;28;20032;-75
2022/07/20 00:08:10;;;;;;;4.30;1.80;;;25.20;34.60;;;;;;5112221;28;20031;-76
2022/07/20 00:13:24;;;;;;;3.47;1.60;;;25.20;34.80;;;;;;5114302;28;20039;-75
2022/07/20 00:15:51;;;;;;;6.93;1.80;;;25.10;34.70;;;;;;5112341;28;20107;-73
2022/07/20 00:18:19;;;;;;;2.53;1.42;;;25.10;35.00;;;;;;5115032;28;20456;-72
2022/07/20 00:20:47;;;;;;;2.88;1.40;;;25.00;34.90;;;;;;5114489;28;20044;-75
2022/07/20 00:23:16;;;;;;;2.38;1.58;;;25.00;35.50;;;;;;5114747;28;20111;-75
2022/07/20 00:25:43;;;;;;;8.38;1.77;;;25.00;35.50;;;;;;5113337;28;20028;-76
2022/07/20 00:28:11;;;;;;;5.95;2.10;;;24.90;36.10;;;;;;5112065;28;20024;-74
2022/07/20 00:30:39;;;;;;;5.38;1.60;;;24.90;36.10;;;;;;5113438;28;20476;-74
2022/07/20 00:33:06;;;;;;;4.72;1.60;;;24.80;35.90;;;;;;5109911;28;20491;-72
2022/07/20 00:35:35;;;;;;;2.92;1.75;;;24.80;35.60;;;;;;5114613;28;20169;-71
2022/07/20 00:38:03;;;;;;;2.92;1.98;;;24.80;36.00;;;;;;5114305;28;20016;-75
2022/07/20 00:40:31;;;;;;;2.35;1.60;;;24.70;36.00;;;;;;5114426;28;20039;-73
2022/07/20 00:43:00;;;;;;;3.30;1.88;;;24.70;36.10;;;;;;5114403;28;20126;-75
2022/07/20 00:45:28;;;;;;;3.65;1.63;;;24.70;36.60;;;;;;5111067;28;20028;-75
2022/07/20 00:47:56;;;;;;;3.25;1.85;;;24.60;36.60;;;;;;5114340;28;20031;-79
2022/07/20 00:50:24;;;;;;;2.80;1.80;;;24.60;36.50;;;;;;5113732;28;20094;-73
2022/07/20 00:52:52;;;;;;;2.22;1.60;;;24.50;36.50;;;;;;5113632;28;20042;-75
2022/07/20 00:55:21;;;;;;;2.95;1.73;;;24.50;36.40;;;;;;5113915;28;20024;-75
2022/07/20 00:57:49;;;;;;;2.83;1.73;;;24.50;36.50;;;;;;5111838;28;20027;-76
2022/07/20 01:00:16;;;;;;;2.33;1.52;;;24.40;37.30;;;;;;5114174;28;20050;-72
2022/07/20 01:02:45;;;;;;;7.28;3.30;;;24.40;37.10;;;;;;5112730;28;20476;-76
2022/07/20 01:05:15;;;;;;;2.83;1.52;;;24.40;37.10;;;;;;5113879;28;20027;-79
2022/07/20 01:07:48;;;;;;;1.90;1.50;;;24.40;36.80;;;;;;5113670;28;20008;-73
2022/07/20 01:10:19;;;;;;;5.43;2.53;;;24.30;37.00;;;;;;5113811;28;20099;-72
2022/07/20 01:12:51;;;;;;;4.47;1.80;;;24.30;36.90;;;;;;5111168;28;20376;-72
2022/07/20 01:15:19;;;;;;;2.92;1.67;;;24.30;36.80;;;;;;5113251;28;20031;-74
2022/07/20 01:17:47;;;;;;;3.67;2.00;;;24.20;37.00;;;;;;5111850;28;20015;-75
2022/07/20 01:20:19;;;;;;;3.55;1.92;;;24.20;37.10;;;;;;5114300;28;20040;-76
2022/07/20 01:22:48;;;;;;;4.88;1.90;;;24.20;37.20;;;;;;5112827;28;20030;-76
2022/07/20 01:25:16;;;;;;;3.40;2.00;;;24.20;37.20;;;;;;5114685;28;20049;-75
2022/07/20 01:27:44;;;;;;;3.45;1.98;;;24.10;37.80;;;;;;5114507;28;20023;-77
2022/07/20 01:30:13;;;;;;;3.28;1.98;;;24.10;37.20;;;;;;5116490;28;20028;-70
2022/07/20 01:32:41;;;;;;;5.97;2.00;;;24.10;37.40;;;;;;5104968;28;20028;-73
2022/07/20 01:35:09;;;;;;;5.95;2.20;;;24.10;37.80;;;;;;5099254;28;20016;-73
2022/07/20 01:37:37;;;;;;;1.63;1.27;;;24.10;37.60;;;;;;5099049;28;20023;-78
2022/07/20 01:40:05;;;;;;;4.05;2.22;;;24.00;37.80;;;;;;5099556;28;20020;-73
2022/07/20 01:42:33;;;;;;;5.47;2.58;;;24.00;38.00;;;;;;5099346;28;20026;-72
2022/07/20 01:45:01;;;;;;;3.33;1.90;;;24.00;37.80;;;;;;5099391;28;20469;-73
2022/07/20 01:47:29;;;;;;;3.88;2.55;;;23.90;37.60;;;;;;5097181;28;20475;-76
2022/07/20 01:49:58;;;;;;;2.90;1.98;;;23.90;38.00;;;;;;5093571;28;20032;-80
2022/07/20 01:52:26;;;;;;;8.35;2.03;;;23.90;38.30;;;;;;5093078;28;20021;-73
2022/07/20 01:54:54;;;;;;;2.38;1.85;;;23.80;38.00;;;;;;5093108;28;20058;-73
2022/07/20 01:57:22;;;;;;;2.80;2.00;;;23.80;38.10;;;;;;5093248;28;20050;-76
2022/07/20 01:59:50;;;;;;;2.10;1.63;;;23.80;38.10;;;;;;5092956;28;20031;-74
2022/07/20 02:02:17;;;;;;;5.38;2.35;;;23.70;38.00;;;;;;5093036;28;20373;-76
2022/07/20 02:04:44;;;;;;;2.95;1.88;;;23.70;38.30;;;;;;5092822;28;20042;-76
2022/07/20 02:07:12;;;;;;;3.58;1.90;;;23.70;38.20;;;;;;5092872;28;20035;-74
2022/07/20 02:09:40;;;;;;;3.65;1.80;;;23.70;38.50;;;;;;5092765;28;20077;-71
2022/07/20 02:12:09;;;;;;;3.45;2.22;;;23.70;38.40;;;;;;5091335;28;20024;-76
2022/07/20 02:14:36;;;;;;;2.03;1.70;;;23.60;38.40;;;;;;5092674;28;20043;-74
2022/07/20 02:17:05;;;;;;;4.90;1.92;;;23.60;38.20;;;;;;5093049;28;20106;-73
2022/07/20 02:19:33;;;;;;;4.03;2.08;;;23.60;38.60;;;;;;5092668;28;20073;-75
2022/07/20 02:22:01;;;;;;;4.50;1.83;;;23.60;39.00;;;;;;5091037;28;20079;-75
2022/07/20 02:24:28;;;;;;;3.97;2.03;;;23.60;39.30;;;;;;5092530;28;20038;-74
2022/07/20 02:26:56;;;;;;;7.47;2.80;;;23.60;39.20;;;;;;5092532;28;20070;-74
2022/07/20 02:29:25;;;;;;;6.45;2.88;;;23.50;39.50;;;;;;5092391;28;20055;-75
2022/07/20 02:31:53;;;;;;;11.75;3.88;;;23.50;39.40;;;;;;5092319;28;20023;-76
2022/07/20 02:34:21;;;;;;;12.52;3.83;;;23.50;39.40;;;;;;5092379;28;20022;-74
2022/07/20 02:36:48;;;;;;;7.72;4.00;;;23.50;39.50;;;;;;5092614;28;20376;-75
2022/07/20 02:39:16;;;;;;;9.75;3.92;;;23.50;39.90;;;;;;5092270;28;20031;-74
2022/07/20 02:41:43;;;;;;;7.22;3.70;;;23.40;39.70;;;;;;5092291;28;20027;-76
2022/07/20 02:44:11;;;;;;;7.72;3.28;;;23.40;40.10;;;;;;5092252;28;20067;-73
2022/07/20 02:46:40;;;;;;;5.32;2.70;;;23.40;40.40;;;;;;5092217;28;20035;-73
2022/07/20 02:49:09;;;;;;;6.82;2.60;;;23.40;40.40;;;;;;5092100;28;20133;-73
2022/07/20 02:51:35;;;;;;;5.40;3.15;;;23.40;40.20;;;;;;5092099;28;20020;-72
2022/07/20 02:54:02;;;;;;;6.50;3.22;;;23.40;40.10;;;;;;5092080;28;20107;-72
2022/07/20 02:56:30;;;;;;;8.15;3.55;;;23.30;40.80;;;;;;5092096;28;20016;-73
2022/07/20 02:58:58;;;;;;;5.15;3.03;;;23.30;40.70;;;;;;5091021;28;20396;-75
2022/07/20 03:01:26;;;;;;;7.18;3.92;;;23.30;40.90;;;;;;5092284;28;20028;-73
2022/07/20 03:03:53;;;;;;;10.27;4.50;;;23.30;40.70;;;;;;5092052;28;20032;-77
2022/07/20 03:06:22;;;;;;;10.55;4.10;;;23.20;40.80;;;;;;5090896;28;20460;-72
2022/07/20 03:08:49;;;;;;;10.68;3.83;;;23.20;41.30;;;;;;5090653;28;20122;-73
2022/07/20 03:11:17;;;;;;;9.93;3.83;;;23.20;41.00;;;;;;5090417;28;20045;-76
2022/07/20 03:13:45;;;;;;;10.25;4.00;;;23.20;41.10;;;;;;5090748;28;20029;-75
2022/07/20 03:16:12;;;;;;;10.05;3.13;;;23.10;41.20;;;;;;5094960;28;20023;-78
2022/07/20 03:18:39;;;;;;;4.50;2.60;;;23.10;41.20;;;;;;5096002;28;20020;-77
2022/07/20 03:21:07;;;;;;;4.70;2.33;;;23.00;41.00;;;;;;5095545;28;20063;-77
2022/07/20 03:23:35;;;;;;;6.70;2.08;;;23.00;40.90;;;;;;5096049;28;20016;-76
2022/07/20 03:26:03;;;;;;;4.13;2.28;;;23.00;41.00;;;;;;5096061;28;20077;-78
2022/07/20 03:28:31;;;;;;;2.90;1.92;;;23.00;41.00;;;;;;5095724;28;20516;-76
2022/07/20 03:30:59;;;;;;;3.85;2.03;;;23.00;41.20;;;;;;5110950;28;20054;-72
2022/07/20 03:33:26;;;;;;;5.38;1.95;;;22.90;41.20;;;;;;5116129;28;20047;-74
2022/07/20 03:35:53;;;;;;;3.42;1.83;;;22.90;41.20;;;;;;5116058;28;20016;-81
2022/07/20 03:38:21;;;;;;;3.00;1.70;;;22.90;41.20;;;;;;5114654;28;20028;-72
2022/07/20 03:40:48;;;;;;;4.70;2.50;;;22.90;41.20;;;;;;5116100;28;20047;-80
2022/07/20 03:43:16;;;;;;;3.10;2.05;;;22.90;41.40;;;;;;5114663;28;20032;-81
2022/07/20 03:45:44;;;;;;;4.90;2.30;;;22.90;41.40;;;;;;5115875;28;20035;-76
2022/07/20 03:48:11;;;;;;;5.50;2.15;;;22.90;41.30;;;;;;5115800;28;20115;-75
2022/07/20 03:50:39;;;;;;;3.35;2.10;;;22.90;41.60;;;;;;5116044;28;20024;-77
2022/07/20 03:53:06;;;;;;;3.75;2.22;;;22.90;41.50;;;;;;5115817;28;20487;-74
2022/07/20 03:55:33;;;;;;;5.97;2.40;;;22.90;41.70;;;;;;5115678;28;20468;-76
2022/07/20 03:58:01;;;;;;;3.08;1.95;;;22.90;41.50;;;;;;5115764;28;20027;-74
2022/07/20 04:00:30;;;;;;;4.82;2.67;;;22.90;41.70;;;;;;5103434;28;20081;-74
2022/07/20 04:02:58;;;;;;;3.47;2.20;;;23.00;42.10;;;;;;5111034;28;20038;-77
2022/07/20 04:05:27;;;;;;;6.53;2.05;;;23.00;42.00;;;;;;5115561;28;20027;-78
2022/07/20 04:07:56;;;;;;;12.60;9.13;;;23.00;42.20;;;;;;5115383;28;20405;-76
2022/07/20 04:10:22;;;;;;;7.57;4.75;;;23.00;42.00;;;;;;5115362;28;20074;-76
2022/07/20 04:12:48;;;;;;;4.68;3.08;;;23.10;42.10;;;;;;5115843;28;20481;-75
2022/07/20 04:15:14;;;;;;;5.85;2.60;;;23.10;42.20;;;;;;5115436;28;20032;-80
2022/07/20 04:17:41;;;;;;;7.22;2.30;;;23.10;42.30;;;;;;5115373;28;20058;-77
2022/07/20 04:20:07;;;;;;;5.95;2.40;;;23.20;42.30;;;;;;5112851;28;20078;-77
2022/07/20 04:22:33;;;;;;;5.97;2.58;;;23.20;42.50;;;;;;5103463;28;20062;-80
2022/07/20 04:24:59;;;;;;;3.53;2.20;;;23.20;42.40;;;;;;5115355;28;20044;-73
2022/07/20 04:27:25;;;;;;;5.30;2.55;;;23.30;42.60;;;;;;5108574;27;20107;-77
2022/07/20 04:29:50;;;;;;;2.42;2.22;;;23.30;42.80;;;;;;5094907;28;20024;-75
2022/07/20 04:32:16;;;;;;;4.75;2.58;;;23.40;42.60;;;;;;5094522;28;20036;-76
2022/07/20 04:34:42;;;;;;;3.45;2.50;;;23.40;42.60;;;;;;5094518;28;20650;-76
2022/07/20 04:37:08;;;;;;;3.25;2.20;;;23.50;42.70;;;;;;5094592;28;20031;-76
2022/07/20 04:39:35;;;;;;;3.65;2.13;;;23.50;42.50;;;;;;5112157;28;20035;-74
2022/07/20 04:42:00;;;;;;;5.38;2.25;;;23.60;42.60;;;;;;5114932;28;20094;-73
2022/07/20 04:44:26;;;;;;;6.43;2.38;;;23.70;42.70;;;;;;5111890;28;20091;-71
2022/07/20 04:46:52;;;;;;;9.13;2.80;;;23.70;42.70;;;;;;5113267;28;20064;-79
2022/07/20 04:49:18;;;;;;;3.35;2.53;;;23.80;42.40;;;;;;5114760;28;20027;-74
2022/07/20 04:51:44;;;;;;;5.82;2.47;;;23.80;42.10;;;;;;5114727;27;20468;-74
2022/07/20 04:54:10;;;;;;;3.40;2.20;;;23.90;41.80;;;;;;5114499;28;20476;-76
2022/07/20 04:56:36;;;;;;;6.78;2.47;;;24.00;41.70;;;;;;5099905;28;20028;-76
2022/07/20 04:59:02;;;;;;;3.00;2.10;;;24.10;41.70;;;;;;5096918;28;20063;-79
2022/07/20 05:01:28;;;;;;;10.38;2.63;;;24.10;41.50;;;;;;5110001;28;20114;-77
2022/07/20 05:03:54;;;;;;;4.40;2.15;;;24.20;41.80;;;;;;5098556;28;20426;-75
2022/07/20 05:06:20;;;;;;;6.22;2.97;;;24.30;42.00;;;;;;5094051;28;20035;-74
2022/07/20 05:08:46;;;;;;;5.25;2.40;;;24.30;43.30;;;;;;5131112;27;20474;-77
2022/07/20 05:11:12;;;;;;;6.47;2.65;;;24.40;43.20;;;;;;5120968;27;20445;-74
2022/07/20 05:13:39;;;;;;;4.15;2.03;;;24.50;43.10;;;;;;5114307;28;20019;-77
2022/07/20 05:16:05;;;;;;;5.28;2.25;;;24.50;43.10;;;;;;5114165;28;20030;-79
2022/07/20 05:18:31;;;;;;;5.55;2.05;;;24.60;43.30;;;;;;5112700;28;20164;-75
2022/07/20 05:20:57;;;;;;;8.77;3.00;;;24.60;44.00;;;;;;5093445;28;20072;-76
2022/07/20 05:23:23;;;;;;;17.17;4.35;;;24.70;44.10;;;;;;5093902;28;20031;-73
2022/07/20 05:25:49;;;;;;;18.40;3.55;;;24.70;44.70;;;;;;5093596;28;20095;-74
2022/07/20 05:28:18;;;;;;;8.98;3.05;;;24.80;44.60;;;;;;5111906;28;20031;-78
2022/07/20 05:30:45;;;;;;;5.88;2.70;;;24.80;44.40;;;;;;5109939;28;20028;-74
2022/07/20 05:33:11;;;;;;;4.60;2.95;;;24.80;44.20;;;;;;5093745;28;20026;-75
2022/07/20 05:35:37;;;;;;;5.18;2.85;;;24.80;44.00;;;;;;5095747;28;20020;-74
2022/07/20 05:38:03;;;;;;;9.13;2.67;;;24.90;44.40;;;;;;5093966;28;20114;-80
2022/07/20 05:40:29;;;;;;;4.82;2.90;;;24.90;44.50;;;;;;5093494;28;20039;-78
2022/07/20 05:42:55;;;;;;;11.68;2.92;;;25.00;44.50;;;;;;5093458;28;20028;-72
2022/07/20 05:45:20;;;;;;;10.35;3.22;;;25.00;44.70;;;;;;5093236;28;20031;-78
2022/07/20 05:47:46;;;;;;;10.73;3.40;;;25.10;45.30;;;;;;5101364;28;20053;-75
2022/07/20 05:50:12;;;;;;;15.75;4.47;;;25.10;44.70;;;;;;5113658;28;20400;-74
2022/07/20 05:52:38;;;;;;;10.57;3.45;;;25.20;45.00;;;;;;5113303;28;20329;-73
2022/07/20 05:55:04;;;;;;;9.20;2.85;;;25.20;44.70;;;;;;5114458;28;20016;-79
2022/07/20 05:57:30;;;;;;;8.88;3.28;;;25.20;44.70;;;;;;5110768;27;20392;-74
2022/07/20 05:59:56;;;;;;;14.60;3.50;;;25.20;44.40;;;;;;5115905;27;20034;-75
2022/07/20 06:02:21;;;;;;;9.30;3.33;;;25.30;44.80;;;;;;5096439;28;20023;-75
2022/07/20 06:04:47;;;;;;;7.55;2.80;;;25.30;44.50;;;;;;5113635;28;20031;-80
2022/07/20 06:07:13;;;;;;;7.88;3.20;;;25.40;44.60;;;;;;5113219;28;20028;-79
2022/07/20 06:09:39;;;;;;;9.60;3.55;;;25.40;44.50;;;;;;5100888;28;20027;-78
2022/07/20 06:12:05;;;;;;;11.10;3.60;;;25.50;44.80;;;;;;5113254;28;20069;-79
2022/07/20 06:14:30;;;;;;;14.32;4.07;;;25.60;44.60;;;;;;5114265;28;20026;-76
2022/07/20 06:16:56;;;;;;;10.43;3.28;;;25.60;44.30;;;;;;5114117;28;20024;-75
2022/07/20 06:19:22;;;;;;;10.35;3.88;;;25.70;44.00;;;;;;5114174;28;20032;-78
2022/07/20 06:21:48;;;;;;;15.98;3.88;;;25.80;44.10;;;;;;5113004;28;20043;-75
2022/07/20 06:24:16;;;;;;;20.85;4.82;;;25.80;44.40;;;;;;5111076;28;20458;-75
2022/07/20 06:26:42;;;;;;;24.85;4.28;;;25.80;44.20;;;;;;5095351;28;20055;-80
2022/07/20 06:29:08;;;;;;;20.45;4.53;;;25.90;43.90;;;;;;5111184;28;20475;-76
2022/07/20 06:31:33;;;;;;;21.00;3.97;;;26.00;44.30;;;;;;5114586;28;20049;-76
2022/07/20 06:33:59;;;;;;;6.80;3.63;;;26.00;44.00;;;;;;5113926;28;20024;-80
2022/07/20 06:36:25;;;;;;;12.93;4.35;;;26.10;42.90;;;;;;5113851;28;20031;-79
2022/07/20 06:38:51;;;;;;;14.45;3.97;;;26.20;43.20;;;;;;5113960;28;20055;-79
2022/07/20 06:41:16;;;;;;;7.18;3.30;;;26.30;43.50;;;;;;5113473;28;20024;-74
2022/07/20 06:43:43;;;;;;;10.93;2.97;;;26.40;43.20;;;;;;5094374;28;20107;-74
2022/07/20 06:46:09;;;;;;;8.02;3.10;;;26.40;42.50;;;;;;5091925;28;20024;-76
2022/07/20 06:48:36;;;;;;;6.00;3.17;;;26.50;42.10;;;;;;5093707;28;20174;-79
2022/07/20 06:51:03;;;;;;;6.38;3.20;;;26.70;42.10;;;;;;5113527;28;20015;-77
2022/07/20 06:53:29;;;;;;;2.95;2.50;;;26.70;41.20;;;;;;5101314;28;20064;-76
2022/07/20 06:55:54;;;;;;;4.68;3.00;;;26.90;39.90;;;;;;5113651;28;20016;-77
2022/07/20 06:58:20;;;;;;;8.80;2.85;;;27.00;40.90;;;;;;5094846;28;20074;-75
2022/07/20 07:00:46;;;;;;;3.97;2.70;;;27.10;40.40;;;;;;5093116;28;20034;-79
2022/07/20 07:03:12;;;;;;;6.57;2.72;;;27.30;40.10;;;;;;5094981;28;20481;-76
2022/07/20 07:05:38;;;;;;;8.00;2.78;;;27.40;39.00;;;;;;5114263;28;20031;-72
2022/07/20 07:08:04;;;;;;;10.02;3.17;;;27.50;37.90;;;;;;5113233;28;20020;-78
2022/07/20 07:10:30;;;;;;;10.23;3.17;;;27.60;38.00;;;;;;5111717;28;20058;-76
2022/07/20 07:12:55;;;;;;;8.02;2.67;;;27.80;38.30;;;;;;5111982;28;20019;-73
2022/07/20 07:15:21;;;;;;;5.40;2.15;;;27.90;37.90;;;;;;5107889;28;20027;-75
2022/07/20 07:17:47;;;;;;;5.55;2.78;;;28.10;38.10;;;;;;5111761;28;20032;-72
2022/07/20 07:20:13;;;;;;;5.25;2.40;;;28.10;37.60;;;;;;5093102;28;20497;-74
2022/07/20 07:22:38;;;;;;;5.53;2.33;;;28.30;38.00;;;;;;5091859;28;20165;-73
2022/07/20 07:25:05;;;;;;;3.05;2.40;;;28.40;37.40;;;;;;5092833;28;20022;-74
2022/07/20 07:27:31;;;;;;;5.05;2.95;;;28.50;37.30;;;;;;5093172;28;20358;-74
2022/07/20 07:29:56;;;;;;;6.32;2.28;;;28.60;36.50;;;;;;5092814;28;20027;-78
2022/07/20 07:32:22;;;;;;;5.50;2.55;;;28.70;37.60;;;;;;5093414;28;20021;-74
2022/07/20 07:34:48;;;;;;;6.30;2.70;;;28.80;35.90;;;;;;5092912;28;20428;-74
2022/07/20 07:37:14;;;;;;;3.40;2.60;;;28.90;35.70;;;;;;5092738;28;20020;-78
2022/07/20 07:39:41;;;;;;;4.15;2.58;;;29.00;36.00;;;;;;5093064;28;20457;-76
2022/07/20 07:42:08;;;;;;;6.65;2.42;;;29.10;35.90;;;;;;5092668;28;20051;-75
2022/07/20 07:44:34;;;;;;;12.35;3.10;;;29.20;35.70;;;;;;5092602;28;20024;-75
2022/07/20 07:47:00;;;;;;;7.40;3.10;;;29.20;35.50;;;;;;5092657;28;20020;-73
2022/07/20 07:49:26;;;;;;;5.57;2.38;;;29.30;35.60;;;;;;5092657;28;20028;-79
2022/07/20 07:51:52;;;;;;;5.97;2.33;;;29.40;35.50;;;;;;5092635;28;20020;-78
2022/07/20 07:54:18;;;;;;;2.80;2.17;;;29.50;35.70;;;;;;5092747;28;20024;-77
2022/07/20 07:56:44;;;;;;;6.97;2.65;;;29.60;35.90;;;;;;5098310;28;20461;-76
2022/07/20 07:59:09;;;;;;;3.83;2.65;;;29.70;35.30;;;;;;5112941;28;20495;-74
2022/07/20 08:01:35;;;;;;;8.32;2.63;;;29.70;35.20;;;;;;5115871;28;20081;-73
2022/07/20 08:04:03;;;;;;;6.95;2.50;;;29.80;35.20;;;;;;5116562;28;20031;-72
2022/07/20 08:06:29;;;;;;;4.15;2.05;;;29.90;35.20;;;;;;5117200;28;20027;-77
2022/07/20 08:08:55;;;;;;;7.22;1.83;;;29.90;35.00;;;;;;5116491;28;20028;-79
2022/07/20 08:11:20;;;;;;;6.38;2.58;;;30.00;35.10;;;;;;5117083;28;20023;-74
2022/07/20 08:13:46;;;;;;;4.80;2.22;;;30.10;35.00;;;;;;5116514;28;20102;-75
2022/07/20 08:16:13;;;;;;;6.20;2.80;;;30.20;34.90;;;;;;5116783;28;20091;-76
2022/07/20 08:18:39;;;;;;;6.03;2.38;;;30.20;34.60;;;;;;5116846;28;20019;-73
2022/07/20 08:21:05;;;;;;;6.13;2.90;;;30.30;34.30;;;;;;5115469;28;20039;-75
2022/07/20 08:23:31;;;;;;;3.00;2.13;;;30.40;34.00;;;;;;5095853;28;20500;-73
2022/07/20 08:25:57;;;;;;;3.33;2.55;;;30.40;33.90;;;;;;5095692;28;20056;-76
2022/07/20 08:28:23;;;;;;;4.05;1.98;;;30.50;33.20;;;;;;5100080;28;20362;-77
2022/07/20 08:30:52;;;;;;;3.15;2.15;;;30.50;33.10;;;;;;5116033;28;20048;-73
2022/07/20 08:33:18;;;;;;;2.95;2.30;;;30.60;33.20;;;;;;5116009;28;20423;-74
2022/07/20 08:35:45;;;;;;;4.88;2.70;;;30.70;32.90;;;;;;5116042;28;20053;-76
2022/07/20 08:38:11;;;;;;;2.88;2.45;;;30.80;33.30;;;;;;5116012;28;20024;-79
2022/07/20 08:40:38;;;;;;;9.52;2.75;;;30.80;33.10;;;;;;5115631;28;20096;-76
2022/07/20 08:43:05;;;;;;;9.30;3.10;;;30.90;31.90;;;;;;5114412;28;20081;-73
2022/07/20 08:45:31;;;;;;;2.65;1.90;;;31.00;31.70;;;;;;5114365;28;20130;-75
2022/07/20 08:48:03;;;;;;;5.63;2.28;;;31.10;32.20;;;;;;5115510;28;20073;-80
2022/07/20 08:50:31;;;;;;;4.85;1.83;;;31.10;32.20;;;;;;5115428;28;20058;-78
2022/07/20 08:52:58;;;;;;;8.18;2.25;;;31.20;32.20;;;;;;5115904;28;20358;-78
2022/07/20 08:55:25;;;;;;;6.25;2.20;;;31.30;31.50;;;;;;5114320;28;20035;-78
2022/07/20 08:57:51;;;;;;;11.35;2.63;;;31.30;31.90;;;;;;5101129;28;20028;-75
2022/07/20 09:00:17;;;;;;;5.40;2.50;;;31.30;31.90;;;;;;5095045;28;20099;-79
2022/07/20 09:03:01;;;;;;;3.10;2.05;;;31.50;31.60;;;;;;5094929;28;20028;-79
2022/07/20 09:05:28;;;;;;;3.83;2.20;;;31.50;31.60;;;;;;5094998;28;20376;-81
2022/07/20 09:07:56;;;;;;;9.20;2.35;;;31.60;31.30;;;;;;5094929;28;20032;-76
2022/07/20 09:10:31;;;;;;;5.43;2.70;;;31.60;31.00;;;;;;5094858;28;20044;-74
2022/07/20 09:12:58;;;;;;;3.90;2.38;;;31.70;30.80;;;;;;5093980;28;20016;-77
2022/07/20 09:15:34;;;;;;;4.75;2.03;;;31.80;30.70;;;;;;5093559;28;20426;-81
2022/07/20 09:18:07;;;;;;;4.47;2.35;;;31.80;30.60;;;;;;5094790;28;20433;-74
2022/07/20 09:20:34;;;;;;;8.88;2.38;;;31.90;30.50;;;;;;5094779;28;20040;-77
2022/07/20 09:23:07;;;;;;;4.45;2.10;;;32.00;30.50;;;;;;5094466;28;20032;-78
2022/07/20 09:25:33;;;;;;;5.82;2.90;;;32.00;30.40;;;;;;5094536;28;20024;-78
2022/07/20 09:28:00;;;;;;;7.30;2.80;;;32.10;30.20;;;;;;5094626;28;20031;-74
2022/07/20 09:30:26;;;;;;;8.57;2.78;;;32.10;29.90;;;;;;5094569;28;20020;-77
2022/07/20 09:33:03;;;;;;;7.20;2.63;;;32.20;30.20;;;;;;5094474;28;20083;-75
2022/07/20 09:35:33;;;;;;;4.63;2.50;;;32.20;29.90;;;;;;5094511;28;20017;-75
2022/07/20 09:38:04;;;;;;;4.13;2.90;;;32.30;29.70;;;;;;5094625;28;20368;-80
2022/07/20 09:40:40;;;;;;;3.30;2.53;;;32.40;30.00;;;;;;5094376;28;20020;-74
2022/07/20 09:43:06;;;;;;;5.00;2.35;;;32.40;29.70;;;;;;5116732;27;20468;-75
2022/07/20 09:45:33;;;;;;;4.85;2.50;;;32.50;29.50;;;;;;5094133;28;20020;-72
2022/07/20 09:48:07;;;;;;;5.15;2.15;;;32.60;29.10;;;;;;5093989;28;20471;-73
2022/07/20 09:50:36;;;;;;;2.97;2.03;;;32.60;29.00;;;;;;5093993;28;20048;-73
2022/07/20 09:53:02;;;;;;;4.70;2.60;;;32.60;29.20;;;;;;5092615;28;20027;-76
2022/07/20 09:55:29;;;;;;;3.78;2.30;;;32.70;28.70;;;;;;5094015;28;20022;-69
2022/07/20 09:57:55;;;;;;;51.13;5.32;;;32.70;28.70;;;;;;5094114;28;20038;-71
2022/07/20 10:00:21;;;;;;;5.28;2.20;;;32.80;28.50;;;;;;5093846;28;20020;-73
2022/07/20 10:02:48;;;;;;;4.47;2.17;;;32.80;28.00;;;;;;5093766;28;20017;-76
2022/07/20 10:05:18;;;;;;;3.70;2.05;;;32.90;28.20;;;;;;5093657;28;20530;-75
2022/07/20 10:07:45;;;;;;;5.93;2.50;;;32.90;28.20;;;;;;5093938;28;20023;-71
2022/07/20 10:10:11;;;;;;;3.88;2.53;;;33.00;26.80;;;;;;5093605;28;20027;-76
2022/07/20 10:12:38;;;;;;;3.83;2.20;;;33.00;27.10;;;;;;5092305;28;20024;-76
2022/07/20 10:15:18;;;;;;;3.72;1.98;;;33.00;27.60;;;;;;5093613;28;20020;-71
2022/07/20 10:17:45;;;;;;;4.57;2.25;;;33.10;27.30;;;;;;5092370;28;20020;-73
2022/07/20 10:20:31;;;;;;;5.43;2.22;;;33.10;27.70;;;;;;5093175;28;20047;-76
2022/07/20 10:23:15;;;;;;;8.95;2.90;;;33.20;27.60;;;;;;5093227;28;20032;-76
2022/07/20 10:25:45;;;;;;;2.75;2.10;;;33.30;27.30;;;;;;5093216;28;20028;-75
2022/07/20 10:28:24;;;;;;;4.13;2.30;;;33.30;26.90;;;;;;5094730;28;20480;-73
2022/07/20 10:31:04;;;;;;;6.40;2.60;;;33.40;27.10;;;;;;5113719;28;20020;-74
2022/07/20 10:33:32;;;;;;;3.58;2.17;;;33.40;26.90;;;;;;5113629;28;20015;-72
2022/07/20 10:38:55;;;;;;;5.25;2.63;;;33.50;27.00;;;;;;5113377;28;20049;-74
2022/07/20 10:41:36;;;;;;;5.63;2.10;;;33.60;27.00;;;;;;5113180;28;20019;-72
2022/07/20 10:44:20;;;;;;;3.40;2.20;;;33.60;26.50;;;;;;5112083;28;20133;-75
2022/07/20 10:46:47;;;;;;;8.52;3.13;;;33.70;26.80;;;;;;5113246;28;20414;-73
2022/07/20 10:49:13;;;;;;;5.40;2.92;;;33.80;26.70;;;;;;5113112;28;20548;-70
2022/07/20 10:51:39;;;;;;;4.13;2.55;;;33.80;26.40;;;;;;5113540;28;20032;-74
2022/07/20 10:54:44;;;;;;;4.13;2.60;;;33.80;25.80;;;;;;5113864;28;20020;-76
2022/07/20 10:57:10;;;;;;;9.07;3.08;;;33.80;26.00;;;;;;5104538;28;20036;-73
2022/07/20 10:59:36;;;;;;;4.72;2.40;;;33.90;25.50;;;;;;5093295;28;20105;-76
2022/07/20 11:02:02;;;;;;;3.05;2.50;;;33.90;25.50;;;;;;5093390;28;20056;-78
2022/07/20 11:04:27;;;;;;;5.05;2.85;;;34.00;25.40;;;;;;5093113;28;20024;-74
2022/07/20 11:06:53;;;;;;;6.10;2.40;;;34.00;25.70;;;;;;5109188;28;20020;-73
2022/07/20 11:09:30;;;;;;;5.80;2.63;;;34.00;25.60;;;;;;5093305;28;20481;-75
2022/07/20 11:11:56;;;;;;;3.38;2.67;;;34.10;25.80;;;;;;5093425;28;20027;-72
2022/07/20 11:14:22;;;;;;;5.00;3.17;;;34.20;25.30;;;;;;5093177;28;20016;-76
2022/07/20 11:16:54;;;;;;;8.50;2.90;;;34.20;24.60;;;;;;5109031;28;20370;-77
2022/07/20 11:19:20;;;;;;;2.70;2.33;;;34.20;25.30;;;;;;5093200;28;20020;-76
2022/07/20 11:21:46;;;;;;;8.32;3.28;;;34.20;25.20;;;;;;5092905;28;20517;-75
2022/07/20 11:24:23;;;;;;;8.57;2.78;;;34.30;24.90;;;;;;5093190;28;20077;-72
2022/07/20 11:26:50;;;;;;;3.55;2.10;;;34.40;25.40;;;;;;5093385;28;20051;-74
2022/07/20 11:29:16;;;;;;;8.50;2.80;;;34.50;25.40;;;;;;5093061;28;20070;-72
2022/07/20 11:31:42;;;;;;;6.10;2.50;;;34.50;25.30;;;;;;5093129;28;20461;-71
2022/07/20 11:34:11;;;;;;;4.90;2.45;;;34.60;24.30;;;;;;5093038;28;20102;-75
2022/07/20 11:36:37;;;;;;;3.92;2.50;;;34.60;24.10;;;;;;5095804;28;20012;-76
2022/07/20 11:39:08;;;;;;;4.63;2.55;;;34.60;24.50;;;;;;5097272;28;20442;-78
2022/07/20 11:41:37;;;;;;;3.42;2.22;;;34.70;24.80;;;;;;5096862;28;20031;-75
2022/07/20 11:44:06;;;;;;;19.48;3.05;;;34.70;23.90;;;;;;5096913;28;20119;-78
2022/07/20 11:46:41;;;;;;;5.80;2.25;;;34.80;24.50;;;;;;5096687;28;20024;-70
2022/07/20 11:49:09;;;;;;;3.10;2.25;;;34.80;24.10;;;;;;5096726;28;20055;-72
2022/07/20 11:51:36;;;;;;;5.90;2.38;;;34.80;23.70;;;;;;5096449;28;20039;-73
2022/07/20 11:54:06;;;;;;;3.00;2.35;;;34.90;23.50;;;;;;5096822;28;20205;-77
2022/07/20 11:56:34;;;;;;;3.10;2.55;;;34.90;23.90;;;;;;5096498;28;20020;-71
2022/07/20 11:59:01;;;;;;;5.28;2.70;;;34.90;24.00;;;;;;5096113;28;20028;-75
2022/07/20 12:01:30;;;;;;;5.50;3.45;;;34.90;24.20;;;;;;5096116;28;20048;-75
2022/07/20 12:04:03;;;;;;;4.90;2.90;;;35.00;23.60;;;;;;5096134;28;20081;-79
2022/07/20 12:06:34;;;;;;;4.45;2.80;;;35.00;23.20;;;;;;5096229;28;20020;-74
2022/07/20 12:09:10;;;;;;;3.25;2.08;;;35.00;23.60;;;;;;5095989;28;20031;-76
2022/07/20 12:12:44;;;;;;;7.55;2.42;;;35.10;23.80;;;;;;5094710;28;20020;-74
2022/07/20 12:14:58;;;;;;;3.03;1.83;;;35.20;23.80;;;;;;5095802;28;20060;-75
2022/07/20 12:17:26;;;;;;;6.55;3.00;;;35.20;22.90;;;;;;5095853;28;20020;-73
2022/07/20 12:19:56;;;;;;;4.30;2.33;;;35.20;21.80;;;;;;5095670;28;20020;-73
2022/07/20 12:22:31;;;;;;;3.10;1.90;;;35.20;22.40;;;;;;5095826;28;20043;-73
2022/07/20 12:24:59;;;;;;;3.50;2.50;;;35.30;22.60;;;;;;5095684;28;20417;-76
2022/07/20 12:27:30;;;;;;;2.97;2.30;;;35.30;22.90;;;;;;5102491;28;20027;-74
2022/07/20 12:29:57;;;;;;;6.20;2.78;;;35.40;23.20;;;;;;5115532;28;20038;-69
2022/07/20 12:32:36;;;;;;;6.78;3.10;;;35.40;22.70;;;;;;5115959;28;20023;-77
2022/07/20 12:35:05;;;;;;;4.05;2.90;;;35.40;23.00;;;;;;5115907;28;20468;-74
2022/07/20 12:37:50;;;;;;;5.18;2.72;;;35.50;22.80;;;;;;5115938;28;20488;-76
2022/07/20 12:40:38;;;;;;;7.47;2.75;;;35.50;23.00;;;;;;5115944;28;20038;-74
2022/07/20 12:43:06;;;;;;;8.13;3.25;;;35.60;22.80;;;;;;5115804;28;20027;-74
2022/07/20 12:45:31;;;;;;;3.08;2.38;;;35.70;22.50;;;;;;5115710;28;20464;-76
2022/07/20 12:47:57;;;;;;;2.92;2.70;;;35.70;22.80;;;;;;5114284;28;20168;-77
2022/07/20 12:50:23;;;;;;;5.65;2.80;;;35.70;22.70;;;;;;5115679;28;20128;-73
2022/07/20 12:52:49;;;;;;;3.70;2.72;;;35.70;22.40;;;;;;5114316;28;20422;-72
2022/07/20 12:55:15;;;;;;;5.80;2.70;;;35.80;21.90;;;;;;5115488;28;20020;-75